createdAt,value
2018-02-10T00:02:19.111Z,151.77
2018-02-10T00:04:48.298Z,162.33
2018-02-10T00:07:17.455Z,168.60
2018-02-10T00:09:46.605Z,160.97
2018-02-10T00:12:15.917Z,157.57
2018-02-10T00:14:45.090Z,155.30
2018-02-10T00:17:14.278Z,164.83
2018-02-10T00:19:43.525Z,152.97
2018-02-10T00:22:18.654Z,158.60
2018-02-10T00:24:47.866Z,155.53
2018-02-10T00:27:17.000Z,146.27
2018-02-10T00:29:46.144Z,156.17
2018-02-10T00:32:15.313Z,173.33
2018-02-10T00:34:44.497Z,170.53
2018-02-10T00:37:13.631Z,163.30
2018-02-10T00:39:42.813Z,158.13
2018-02-10T00:42:11.948Z,160.63
2018-02-10T00:44:41.081Z,159.97
2018-02-10T00:47:10.246Z,162.03
2018-02-10T00:49:39.673Z,163.43
2018-02-10T00:52:08.817Z,160.23
2018-02-10T00:54:38.035Z,161.63
2018-02-10T00:57:07.181Z,158.43
2018-02-10T00:59:36.370Z,161.07
2018-02-10T01:02:05.536Z,155.37
2018-02-10T01:04:34.685Z,159.37
2018-02-10T01:07:03.945Z,157.23
2018-02-10T01:09:33.089Z,157.20
2018-02-10T01:12:02.225Z,164.60
2018-02-10T01:14:31.686Z,156.17
2018-02-10T01:17:00.834Z,147.60
2018-02-10T01:19:29.973Z,151.73
2018-02-10T01:21:59.138Z,158.20
2018-02-10T01:24:28.304Z,151.37
2018-02-10T01:26:57.469Z,151.83
2018-02-10T01:29:26.641Z,155.60
2018-02-10T01:31:55.794Z,150.90
2018-02-10T01:34:24.933Z,150.07
2018-02-10T01:36:54.126Z,163.63
2018-02-10T01:39:23.273Z,150.23
2018-02-10T01:41:52.603Z,158.90
2018-02-10T01:44:21.862Z,160.57
2018-02-10T01:46:50.994Z,147.87
2018-02-10T01:49:20.465Z,147.20
2018-02-10T01:51:49.682Z,146.77
2018-02-10T01:54:18.868Z,163.43
2018-02-10T01:56:48.025Z,156.97
2018-02-10T01:59:17.164Z,148.37
2018-02-10T02:01:46.317Z,147.20
2018-02-10T02:04:15.481Z,151.90
2018-02-10T02:09:09.698Z,141.00
2018-02-10T02:11:39.301Z,146.53
2018-02-10T02:14:08.440Z,160.77
2018-02-10T02:16:37.590Z,147.77
2018-02-10T02:19:06.752Z,155.77
2018-02-10T02:21:35.890Z,148.07
2018-02-10T02:24:05.041Z,154.07
2018-02-10T02:26:34.230Z,158.23
2018-02-10T02:29:03.407Z,165.67
2018-02-10T02:31:32.548Z,145.73
2018-02-10T02:34:01.726Z,154.47
2018-02-10T02:36:30.871Z,161.83
2018-02-10T02:39:00.010Z,147.63
2018-02-10T02:41:29.177Z,149.03
2018-02-10T02:43:58.329Z,146.87
2018-02-10T02:46:27.466Z,144.23
2018-02-10T02:48:56.632Z,149.83
2018-02-10T02:51:25.777Z,152.03
2018-02-10T02:53:54.917Z,158.13
2018-02-10T02:59:02.954Z,157.17
2018-02-10T03:01:32.128Z,157.17
2018-02-10T03:04:01.264Z,157.20
2018-02-10T03:06:30.392Z,158.57
2018-02-10T03:08:59.556Z,152.90
2018-02-10T03:11:28.697Z,153.57
2018-02-10T03:13:57.847Z,152.67
2018-02-10T03:16:27.089Z,154.27
2018-02-10T03:18:56.225Z,154.73
2018-02-10T03:21:25.362Z,160.07
2018-02-10T03:23:54.557Z,154.77
2018-02-10T03:26:23.707Z,154.50
2018-02-10T03:28:52.880Z,148.03
2018-02-10T03:31:22.023Z,146.30
2018-02-10T03:33:51.161Z,151.27
2018-02-10T03:36:20.329Z,147.50
2018-02-10T03:38:49.496Z,156.30
2018-02-10T03:41:18.646Z,155.97
2018-02-10T03:43:47.825Z,150.30
2018-02-10T03:46:16.973Z,154.00
2018-02-10T03:48:46.195Z,154.10
2018-02-10T03:51:15.376Z,153.50
2018-02-10T03:53:44.526Z,159.57
2018-02-10T03:56:13.729Z,160.97
2018-02-10T03:58:42.879Z,150.37
2018-02-10T04:01:12.022Z,165.87
2018-02-10T04:03:41.172Z,163.00
2018-02-10T04:06:10.326Z,168.07
2018-02-10T04:08:39.505Z,157.70
2018-02-10T04:11:08.642Z,160.17
2018-02-10T04:13:37.770Z,174.47
2018-02-10T04:16:06.951Z,168.07
2018-02-10T04:18:36.082Z,165.07
2018-02-10T04:21:05.262Z,167.50
2018-02-10T04:23:34.476Z,156.83
2018-02-10T04:26:03.657Z,160.43
2018-02-10T04:28:32.792Z,171.00
2018-02-10T04:31:02.032Z,160.60
2018-02-10T04:33:31.172Z,162.37
2018-02-10T04:36:00.684Z,160.73
2018-02-10T04:38:29.838Z,174.97
2018-02-10T04:40:58.974Z,158.77
2018-02-10T04:43:28.143Z,159.73
2018-02-10T04:45:57.288Z,165.70
2018-02-10T04:48:26.429Z,156.37
2018-02-10T04:50:55.653Z,154.50
2018-02-10T04:53:24.810Z,166.13
2018-02-10T04:55:53.953Z,157.23
2018-02-10T04:58:23.110Z,160.20
2018-02-10T05:00:52.260Z,150.23
2018-02-10T05:03:21.392Z,166.30
2018-02-10T05:05:50.558Z,156.10
2018-02-10T05:08:19.730Z,155.13
2018-02-10T05:10:48.867Z,165.70
2018-02-10T05:13:18.014Z,171.70
2018-02-10T05:15:47.190Z,148.57
2018-02-10T05:18:16.384Z,158.53
2018-02-10T05:20:45.506Z,160.97
2018-02-10T05:23:14.668Z,155.00
2018-02-10T05:25:43.813Z,165.90
2018-02-10T05:28:13.026Z,158.40
2018-02-10T05:30:42.165Z,154.73
2018-02-10T05:33:11.312Z,160.73
2018-02-10T05:35:40.500Z,155.23
2018-02-10T05:38:09.640Z,149.17
2018-02-10T05:40:38.781Z,152.97
2018-02-10T05:43:07.928Z,157.57
2018-02-10T05:45:37.068Z,162.57
2018-02-10T05:48:06.250Z,160.53
2018-02-10T05:50:35.388Z,154.10
2018-02-10T05:53:04.531Z,157.03
2018-02-10T05:55:33.722Z,160.97
2018-02-10T05:58:02.892Z,163.60
2018-02-10T06:00:32.053Z,153.33
2018-02-10T06:03:01.185Z,161.13
2018-02-10T06:05:30.369Z,157.13
2018-02-10T06:07:59.541Z,165.77
2018-02-10T06:10:28.677Z,169.93
2018-02-10T06:12:57.862Z,161.70
2018-02-10T06:15:27.008Z,149.50
2018-02-10T06:17:56.142Z,156.43
2018-02-10T06:20:25.327Z,155.00
2018-02-10T06:22:54.465Z,159.87
2018-02-10T06:25:23.687Z,168.30
2018-02-10T06:27:52.918Z,157.20
2018-02-10T06:30:22.061Z,154.97
2018-02-10T06:32:51.211Z,150.83
2018-02-10T06:35:20.406Z,144.73
2018-02-10T06:37:49.553Z,155.10
2018-02-10T06:40:18.703Z,160.63
2018-02-10T06:42:47.861Z,163.77
2018-02-10T06:45:17.005Z,156.90
2018-02-10T06:47:46.143Z,168.10
2018-02-10T06:50:15.597Z,160.10
2018-02-10T06:52:44.740Z,154.23
2018-02-10T06:55:13.890Z,161.20
2018-02-10T06:57:43.057Z,148.10
2018-02-10T07:00:12.213Z,155.30
2018-02-10T07:02:41.357Z,156.93
2018-02-10T07:05:10.547Z,151.47
2018-02-10T07:07:39.730Z,156.07
2018-02-10T07:10:08.990Z,160.40
2018-02-10T07:12:38.132Z,159.53
2018-02-10T07:15:07.312Z,160.07
2018-02-10T07:17:36.453Z,156.30
2018-02-10T07:20:05.609Z,150.17
2018-02-10T07:22:34.768Z,157.80
2018-02-10T07:25:03.901Z,155.03
2018-02-10T07:27:33.064Z,152.30
2018-02-10T07:30:02.249Z,161.57
2018-02-10T07:32:31.388Z,156.10
2018-02-10T07:35:00.563Z,155.17
2018-02-10T07:37:29.802Z,152.87
2018-02-10T07:39:58.942Z,152.17
2018-02-10T07:42:28.177Z,148.93
2018-02-10T07:44:57.352Z,153.13
2018-02-10T07:47:26.498Z,151.17
2018-02-10T07:49:55.961Z,156.63
2018-02-10T07:52:25.104Z,155.37
2018-02-10T07:54:54.249Z,155.63
2018-02-10T07:57:23.440Z,157.60
2018-02-10T07:59:52.594Z,148.57
2018-02-10T08:02:21.741Z,152.33
2018-02-10T08:04:50.926Z,147.60
2018-02-10T08:07:20.101Z,161.93
2018-02-10T08:09:49.279Z,161.53
2018-02-10T08:12:18.595Z,142.27
2018-02-10T08:14:47.732Z,147.37
2018-02-10T08:17:16.886Z,153.00
2018-02-10T08:19:46.071Z,166.83
2018-02-10T08:22:15.211Z,156.17
2018-02-10T08:24:44.353Z,164.93
2018-02-10T08:27:13.531Z,161.67
2018-02-10T08:29:42.682Z,162.97
2018-02-10T08:32:11.885Z,169.30
2018-02-10T08:34:41.026Z,152.87
2018-02-10T08:37:10.220Z,161.30
2018-02-10T08:39:39.365Z,170.23
2018-02-10T08:42:08.510Z,161.87
2018-02-10T08:44:37.721Z,163.07
2018-02-10T08:47:07.034Z,165.60
2018-02-10T08:49:36.176Z,161.37
2018-02-10T08:52:05.778Z,154.47
2018-02-10T08:54:34.926Z,155.30
2018-02-10T08:57:04.069Z,153.70
2018-02-10T08:59:33.271Z,156.17
2018-02-10T09:02:02.417Z,148.83
2018-02-10T09:04:31.586Z,144.87
2018-02-10T09:07:00.756Z,144.13
2018-02-10T09:09:29.905Z,150.50
2018-02-10T09:11:59.043Z,155.03
2018-02-10T09:14:28.221Z,156.07
2018-02-10T09:16:57.361Z,142.10
2018-02-10T09:19:26.526Z,146.80
2018-02-10T09:21:55.781Z,151.73
2018-02-10T09:24:24.918Z,148.67
2018-02-10T09:26:54.092Z,145.97
2018-02-10T09:29:23.261Z,156.63
2018-02-10T09:31:52.400Z,146.53
2018-02-10T09:34:21.569Z,144.70
2018-02-10T09:36:50.734Z,149.43
2018-02-10T09:39:19.897Z,134.27
2018-02-10T09:41:49.056Z,143.20
2018-02-10T09:44:18.239Z,138.07
2018-02-10T09:46:47.390Z,137.20
2018-02-10T09:49:16.546Z,139.93
2018-02-10T09:51:45.791Z,136.57
2018-02-10T09:54:14.960Z,137.40
2018-02-10T09:56:44.110Z,144.37
2018-02-10T09:59:13.273Z,146.47
2018-02-10T10:01:42.903Z,136.40
2018-02-10T10:04:12.048Z,137.07
2018-02-10T10:06:41.245Z,135.40
2018-02-10T10:09:10.392Z,140.50
2018-02-10T10:11:39.550Z,142.17
2018-02-10T10:14:08.707Z,141.70
2018-02-10T10:16:37.876Z,148.10
2018-02-10T10:19:07.025Z,136.93
2018-02-10T10:21:36.213Z,134.43
2018-02-10T10:24:05.361Z,143.37
2018-02-10T10:26:34.539Z,143.00
2018-02-10T10:29:03.673Z,143.73
2018-02-10T10:31:32.841Z,133.10
2018-02-10T10:34:01.981Z,132.70
2018-02-10T10:36:31.121Z,142.07
2018-02-10T10:39:00.312Z,133.00
2018-02-10T10:41:29.477Z,144.47
2018-02-10T10:43:58.671Z,135.23
2018-02-10T10:46:27.810Z,132.80
2018-02-10T10:48:56.980Z,138.07
2018-02-10T10:51:26.125Z,145.93
2018-02-10T10:53:55.317Z,137.10
2018-02-10T10:56:24.455Z,141.13
2018-02-10T10:58:53.608Z,144.80
2018-02-10T11:01:22.788Z,137.13
2018-02-10T11:03:52.212Z,140.10
2018-02-10T11:06:21.351Z,135.03
2018-02-10T11:08:50.533Z,141.30
2018-02-10T11:11:19.695Z,135.67
2018-02-10T11:13:48.836Z,138.13
2018-02-10T11:16:18.398Z,134.00
2018-02-10T11:18:47.533Z,135.43
2018-02-10T11:21:16.676Z,139.93
2018-02-10T11:23:45.848Z,142.73
2018-02-10T11:26:15.008Z,137.83
2018-02-10T11:28:44.191Z,131.90
2018-02-10T11:31:13.721Z,146.57
2018-02-10T11:33:42.865Z,139.13
2018-02-10T11:36:12.024Z,135.87
2018-02-10T11:38:41.187Z,138.40
2018-02-10T11:41:10.343Z,137.17
2018-02-10T11:43:39.503Z,145.47
2018-02-10T11:46:08.739Z,144.77
2018-02-10T11:48:37.877Z,139.20
2018-02-10T11:51:07.034Z,144.50
2018-02-10T11:53:36.204Z,138.47
2018-02-10T11:56:05.344Z,138.50
2018-02-10T11:58:34.489Z,128.73
2018-02-10T12:01:03.686Z,135.87
2018-02-10T12:03:32.830Z,134.43
2018-02-10T12:06:02.428Z,141.47
2018-02-10T12:08:31.601Z,139.80
2018-02-10T12:11:00.759Z,134.00
2018-02-10T12:13:29.922Z,135.47
2018-02-10T12:15:59.098Z,133.80
2018-02-10T12:18:28.228Z,134.57
2018-02-10T12:20:57.399Z,134.90
2018-02-10T12:23:26.537Z,133.57
2018-02-10T12:25:55.683Z,134.00
2018-02-10T12:28:24.841Z,137.07
2018-02-10T12:30:53.985Z,143.20
2018-02-10T12:33:23.126Z,129.17
2018-02-10T12:35:52.609Z,128.03
2018-02-10T12:38:21.749Z,131.83
2018-02-10T12:40:50.885Z,134.97
2018-02-10T12:43:20.071Z,129.27
2018-02-10T12:45:49.210Z,134.37
2018-02-10T12:48:37.163Z,140.37
2018-02-10T12:51:06.349Z,127.27
2018-02-10T12:53:35.493Z,129.40
2018-02-10T12:56:04.644Z,131.83
2018-02-10T12:58:33.827Z,125.93
2018-02-10T13:01:02.976Z,120.90
2018-02-10T13:03:32.137Z,121.60
2018-02-10T13:06:01.350Z,121.17
2018-02-10T13:08:30.624Z,126.03
2018-02-10T13:10:59.772Z,122.93
2018-02-10T13:13:28.962Z,117.90
2018-02-10T13:15:58.128Z,119.97
2018-02-10T13:18:27.276Z,119.07
2018-02-10T13:20:56.413Z,124.40
2018-02-10T13:23:25.625Z,125.93
2018-02-10T13:25:54.774Z,120.27
2018-02-10T13:28:23.937Z,121.27
2018-02-10T13:30:53.097Z,117.30
2018-02-10T13:33:22.232Z,116.57
2018-02-10T13:35:51.373Z,116.37
2018-02-10T13:38:20.568Z,116.00
2018-02-10T13:40:49.702Z,117.07
2018-02-10T13:43:18.877Z,120.13
2018-02-10T13:45:48.057Z,113.63
2018-02-10T13:48:23.092Z,120.37
2018-02-10T13:50:52.255Z,115.43
2018-02-10T13:53:21.404Z,121.33
2018-02-10T13:55:50.549Z,109.33
2018-02-10T13:58:19.721Z,114.40
2018-02-10T14:00:48.867Z,116.93
2018-02-10T14:03:18.048Z,111.33
2018-02-10T14:05:47.189Z,120.63
2018-02-10T14:08:16.329Z,111.20
2018-02-10T14:10:45.889Z,135.00
2018-02-10T14:13:15.029Z,137.17
2018-02-10T14:15:44.242Z,144.30
2018-02-10T14:18:13.417Z,135.97
2018-02-10T14:20:42.586Z,140.67
2018-02-10T14:23:11.766Z,140.40
2018-02-10T14:25:40.907Z,146.20
2018-02-10T14:28:10.081Z,130.17
2018-02-10T14:30:39.221Z,142.87
2018-02-10T14:33:08.372Z,133.43
2018-02-10T14:35:37.578Z,128.33
2018-02-10T14:38:06.712Z,121.33
2018-02-10T14:40:35.895Z,122.40
2018-02-10T14:43:05.073Z,122.07
2018-02-10T14:45:34.228Z,130.27
2018-02-10T14:48:03.405Z,119.17
2018-02-10T14:50:32.557Z,119.60
2018-02-10T14:53:01.707Z,118.70
2018-02-10T14:55:30.873Z,118.63
2018-02-10T14:58:00.047Z,128.13
2018-02-10T15:00:29.191Z,114.93
2018-02-10T15:02:58.373Z,118.07
2018-02-10T15:05:27.524Z,119.60
2018-02-10T15:07:56.674Z,122.57
2018-02-10T15:10:25.813Z,115.47
2018-02-10T15:12:55.010Z,123.13
2018-02-10T15:15:24.251Z,115.93
2018-02-10T15:17:53.401Z,120.67
2018-02-10T15:20:22.546Z,112.10
2018-02-10T15:22:51.707Z,115.47
2018-02-10T15:25:20.855Z,106.17
2018-02-10T15:27:50.044Z,119.10
2018-02-10T15:30:24.882Z,113.67
2018-02-10T15:33:00.230Z,114.80
2018-02-10T15:35:29.389Z,118.60
2018-02-10T15:37:58.540Z,110.53
2018-02-10T15:40:27.713Z,109.67
2018-02-10T15:42:56.858Z,111.17
2018-02-10T15:45:26.003Z,112.30
2018-02-10T15:47:55.228Z,120.27
2018-02-10T15:50:24.376Z,121.90
2018-02-10T15:52:53.516Z,117.83
2018-02-10T15:55:22.699Z,113.80
2018-02-10T15:57:51.865Z,106.90
2018-02-10T16:00:21.053Z,105.27
2018-02-10T16:02:50.245Z,113.43
2018-02-10T16:05:19.402Z,111.13
2018-02-10T16:07:48.578Z,113.83
2018-02-10T16:10:17.761Z,114.33
2018-02-10T16:12:46.924Z,113.73
2018-02-10T16:15:16.071Z,123.10
2018-02-10T16:17:45.241Z,118.80
2018-02-10T16:20:14.419Z,113.37
2018-02-10T16:22:43.572Z,113.67
2018-02-10T16:25:12.717Z,115.40
2018-02-10T16:27:41.902Z,116.67
2018-02-10T16:30:11.049Z,117.67
2018-02-10T16:32:40.197Z,125.23
2018-02-10T16:35:09.369Z,118.03
2018-02-10T16:37:38.518Z,123.47
2018-02-10T16:40:07.655Z,127.07
2018-02-10T16:42:36.813Z,124.77
2018-02-10T16:45:05.989Z,124.93
2018-02-10T16:47:35.126Z,120.90
2018-02-10T16:50:04.314Z,119.37
2018-02-10T16:52:33.450Z,127.23
2018-02-10T16:55:02.605Z,122.37
2018-02-10T16:57:31.770Z,130.23
2018-02-10T17:00:00.935Z,129.67
2018-02-10T17:02:30.105Z,125.20
2018-02-10T17:04:59.289Z,127.33
2018-02-10T17:07:28.436Z,116.90
2018-02-10T17:09:57.591Z,123.87
2018-02-10T17:12:26.777Z,125.90
2018-02-10T17:14:55.914Z,127.70
2018-02-10T17:17:25.314Z,124.77
2018-02-10T17:19:54.492Z,122.90
2018-02-10T17:22:23.628Z,126.33
2018-02-10T17:24:52.773Z,125.33
2018-02-10T17:27:21.981Z,125.30
2018-02-10T17:29:51.137Z,119.03
2018-02-10T17:32:20.282Z,120.70
2018-02-10T17:34:49.456Z,122.27
2018-02-10T17:37:18.613Z,124.57
2018-02-10T17:39:47.758Z,124.07
2018-02-10T17:42:16.930Z,131.23
2018-02-10T17:44:46.134Z,118.03
2018-02-10T17:47:15.273Z,121.87
2018-02-10T17:49:44.411Z,122.63
2018-02-10T17:52:13.888Z,125.93
2018-02-10T17:54:43.042Z,123.80
2018-02-10T17:57:12.191Z,117.03
2018-02-10T17:59:41.349Z,116.87
2018-02-10T18:02:10.481Z,133.40
2018-02-10T18:04:39.626Z,113.40
2018-02-10T18:07:08.805Z,119.27
2018-02-10T18:09:37.951Z,120.37
2018-02-10T18:12:07.085Z,129.17
2018-02-10T18:14:36.258Z,127.73
2018-02-10T18:17:05.509Z,122.33
2018-02-10T18:19:34.648Z,122.27
2018-02-10T18:22:03.826Z,122.90
2018-02-10T18:24:32.967Z,141.87
2018-02-10T18:27:02.151Z,128.47
2018-02-10T18:29:31.328Z,123.07
2018-02-10T18:32:00.472Z,129.90
2018-02-10T18:34:29.656Z,128.47
2018-02-10T18:36:58.797Z,140.43
2018-02-10T18:39:27.969Z,132.67
2018-02-10T18:41:57.113Z,119.53
2018-02-10T18:44:26.281Z,122.17
2018-02-10T18:46:55.425Z,123.13
2018-02-10T18:49:24.595Z,118.20
2018-02-10T18:51:53.760Z,117.10
2018-02-10T18:54:22.907Z,120.43
2018-02-10T18:56:52.052Z,119.23
2018-02-10T18:59:21.213Z,122.10
2018-02-10T19:01:50.372Z,123.97
2018-02-10T19:04:19.555Z,123.40
2018-02-10T19:06:48.696Z,122.50
2018-02-10T19:09:17.875Z,119.57
2018-02-10T19:11:47.023Z,116.07
2018-02-10T19:14:16.208Z,129.53
2018-02-10T19:16:45.362Z,124.00
2018-02-10T19:19:14.542Z,118.10
2018-02-10T19:21:43.693Z,118.03
2018-02-10T19:24:12.853Z,119.30
2018-02-10T19:26:41.994Z,118.87
2018-02-10T19:29:11.133Z,113.00
2018-02-10T19:31:40.323Z,121.17
2018-02-10T19:34:09.492Z,110.97
2018-02-10T19:36:38.632Z,116.20
2018-02-10T19:39:07.769Z,113.10
2018-02-10T19:41:36.956Z,118.20
2018-02-10T19:44:06.109Z,118.40
2018-02-10T19:46:35.370Z,120.97
2018-02-10T19:49:04.505Z,119.60
2018-02-10T19:51:33.641Z,120.77
2018-02-10T19:54:02.817Z,120.97
2018-02-10T19:56:31.961Z,121.23
2018-02-10T19:59:01.109Z,114.03
2018-02-10T20:01:30.283Z,122.37
2018-02-10T20:03:59.593Z,124.90
2018-02-10T20:06:28.755Z,118.53
2018-02-10T20:08:57.903Z,123.37
2018-02-10T20:11:27.049Z,125.23
2018-02-10T20:13:56.265Z,129.00
2018-02-10T20:16:25.410Z,123.23
2018-02-10T20:18:54.584Z,126.43
2018-02-10T20:21:23.733Z,114.97
2018-02-10T20:23:52.920Z,124.17
2018-02-10T20:26:22.060Z,130.70
2018-02-10T20:28:51.237Z,123.87
2018-02-10T20:31:20.398Z,120.57
2018-02-10T20:33:49.540Z,129.33
2018-02-10T20:36:18.680Z,120.60
2018-02-10T20:38:47.854Z,123.13
2018-02-10T20:41:17.002Z,127.77
2018-02-10T20:43:46.155Z,129.17
2018-02-10T20:46:15.343Z,129.47
2018-02-10T20:48:44.477Z,129.73
2018-02-10T20:51:13.630Z,129.67
2018-02-10T20:53:42.823Z,119.90
2018-02-10T20:56:12.045Z,134.57
2018-02-10T20:58:41.196Z,123.37
2018-02-10T21:01:10.333Z,122.47
2018-02-10T21:03:39.489Z,124.93
2018-02-10T21:06:08.679Z,137.93
2018-02-10T21:08:37.794Z,124.90
2018-02-10T21:11:06.961Z,130.10
2018-02-10T21:13:36.154Z,124.63
2018-02-10T21:16:05.305Z,126.80
2018-02-10T21:18:34.494Z,130.03
2018-02-10T21:21:03.702Z,121.33
2018-02-10T21:23:32.874Z,125.57
2018-02-10T21:26:02.012Z,122.53
2018-02-10T21:28:31.160Z,123.10
2018-02-10T21:31:00.300Z,124.27
2018-02-10T21:33:29.485Z,124.57
2018-02-10T21:35:58.621Z,120.33
2018-02-10T21:38:27.795Z,124.57
2018-02-10T21:40:56.933Z,124.90
2018-02-10T21:43:26.088Z,122.63
2018-02-10T21:45:55.274Z,115.47
2018-02-10T21:48:24.458Z,115.53
2018-02-10T21:50:53.616Z,122.40
2018-02-10T21:53:23.086Z,119.57
2018-02-10T21:55:52.239Z,116.10
2018-02-10T21:58:21.389Z,116.00
2018-02-10T22:00:50.589Z,112.67
2018-02-10T22:03:19.725Z,112.80
2018-02-10T22:05:48.922Z,114.87
2018-02-10T22:08:18.112Z,117.33
2018-02-10T22:10:47.262Z,117.87
2018-02-10T22:13:16.438Z,114.80
2018-02-10T22:15:45.628Z,117.07
2018-02-10T22:18:14.788Z,118.03
2018-02-10T22:20:43.925Z,118.83
2018-02-10T22:23:13.079Z,118.80
2018-02-10T22:25:42.329Z,110.87
2018-02-10T22:28:11.481Z,120.00
2018-02-10T22:30:40.645Z,110.97
2018-02-10T22:33:09.814Z,111.80
2018-02-10T22:35:38.959Z,111.10
2018-02-10T22:38:08.137Z,114.00
2018-02-10T22:40:37.289Z,113.50
2018-02-10T22:43:06.434Z,114.73
2018-02-10T22:45:35.627Z,117.93
2018-02-10T22:48:04.781Z,119.93
2018-02-10T22:50:33.972Z,107.47
2018-02-10T22:53:03.127Z,111.40
2018-02-10T22:55:32.276Z,107.27
2018-02-10T22:58:01.425Z,109.97
2018-02-10T23:00:30.574Z,106.30
2018-02-10T23:02:59.762Z,104.43
2018-02-10T23:05:28.909Z,105.10
2018-02-10T23:07:58.537Z,107.17
2018-02-10T23:10:27.741Z,106.67
2018-02-10T23:12:56.882Z,108.00
2018-02-10T23:15:26.662Z,103.00
2018-02-10T23:17:55.845Z,109.00
2018-02-10T23:20:24.994Z,101.93
2018-02-10T23:22:54.153Z,103.27
2018-02-10T23:25:23.381Z,107.30
2018-02-10T23:27:52.517Z,109.47
2018-02-10T23:30:22.049Z,104.17
2018-02-10T23:32:51.197Z,103.80
2018-02-10T23:35:39.125Z,104.07
2018-02-10T23:38:08.289Z,104.30
2018-02-10T23:40:37.434Z,98.47
2018-02-10T23:43:06.589Z,100.43
2018-02-10T23:45:35.752Z,103.63
2018-02-10T23:48:04.894Z,98.50
2018-02-10T23:50:34.031Z,103.20
2018-02-10T23:53:03.202Z,101.27
2018-02-10T23:55:32.346Z,96.80
2018-02-10T23:58:01.493Z,97.37
